Paramount Hamilton — 2CWB2 — position and weather

sailwx.info

Track history (hours):
 
Tides and Currents Weather Stations Pressure Air Temp Water Temp Dewpoint Dewpoint Depression Visibility Wind Speed Wind Dir Waves Ship Positions

Paramount Hamilton

Last reported at 2017-Feb-19 20:28 UTC. Time now 2017-Feb-21 12:06 UTC.
Position N 28°40' W 094°28'.

Length 249 m; draft 10.9 m.

Type: Tanker. MMSI: 235076274.

Date/timePositionNaut miles runAvg speedWind from/ knotsBaromVisibWave heightAir tempDewpointWater temp
2017-Feb-19 20:28N 28°40' W 094°28'3 2.8
2017-Feb-19 19:33N 28°39' W 094°25'10 0.4
2017-Feb-18 21:32N 28°42' W 094°14'0 0.0
2017-Feb-18 20:23N 28°42' W 094°14'0 0.0
2017-Feb-18 19:29N 28°42' W 094°14'0 0.0
2017-Feb-18 18:32N 28°42' W 094°14'  
2017-Feb-11 20:33N 29°22' W 094°48'1010.2
2017-Feb-11 19:33N 29°31' W 094°53'9 9.4
2017-Feb-11 18:33N 29°39' W 094°58'7 6.9
2017-Feb-11 17:33N 29°44' W 095°04'2 0.9
2017-Feb-11 15:20N 29°45' W 095°06'0 0.0
2017-Feb-11 14:32N 29°45' W 095°06'0 0.0
2017-Feb-11 13:26N 29°45' W 095°06'0 0.0
2017-Feb-11 12:29N 29°45' W 095°06'0 0.0
2017-Feb-11 11:26N 29°45' W 095°06'0 0.0
2017-Feb-11 10:32N 29°45' W 095°06'0 0.0
2017-Feb-11 09:32N 29°45' W 095°06'0 0.0
2017-Feb-11 08:32N 29°45' W 095°06'0 0.0
2017-Feb-11 07:32N 29°45' W 095°06'0 0.0
2017-Feb-11 06:32N 29°45' W 095°06'0 0.0
2017-Feb-11 05:32N 29°45' W 095°06'0 0.0
2017-Feb-11 04:32N 29°45' W 095°06'0 0.0
2017-Feb-11 03:32N 29°45' W 095°06'0 0.0
2017-Feb-11 02:32N 29°45' W 095°06'0 0.0
2017-Feb-11 01:32N 29°45' W 095°06'0 0.0
2017-Feb-11 00:32N 29°45' W 095°06'0 0.0
2017-Feb-10 23:32N 29°45' W 095°06'0 0.0
2017-Feb-10 22:32N 29°45' W 095°06'0 0.0
2017-Feb-10 21:32N 29°45' W 095°06'0 0.0
2017-Feb-10 20:32N 29°45' W 095°06'0 0.0
2017-Feb-10 19:32N 29°45' W 095°06'0 0.0
2017-Feb-10 18:32N 29°45' W 095°06'0 0.0
2017-Feb-10 17:32N 29°45' W 095°06'0 0.0
2017-Feb-10 16:32N 29°45' W 095°06'0 0.0
2017-Feb-10 15:29N 29°45' W 095°06'0 0.0
2017-Feb-10 14:32N 29°45' W 095°06'0 0.0
2017-Feb-10 13:32N 29°45' W 095°06'0 0.0
2017-Feb-10 12:32N 29°45' W 095°06'0 0.0
2017-Feb-10 11:32N 29°45' W 095°06'0 0.0
2017-Feb-10 10:32N 29°45' W 095°06'0 0.0
2017-Feb-10 06:08N 29°45' W 095°06'0 0.0
2017-Feb-10 05:32N 29°45' W 095°06'0 0.0
2017-Feb-10 04:29N 29°45' W 095°06'0 0.0
2017-Feb-10 03:32N 29°45' W 095°06'0 0.0
2017-Feb-10 02:32N 29°45' W 095°06'0 0.0
2017-Feb-10 01:32N 29°45' W 095°06'0 0.0
2017-Feb-10 00:32N 29°45' W 095°06'0 0.0
2017-Feb-09 23:29N 29°45' W 095°06'0 0.0
2017-Feb-09 22:32N 29°45' W 095°06'0 0.0
2017-Feb-09 21:32N 29°45' W 095°06'0 0.0
2017-Feb-09 20:32N 29°45' W 095°06'  
Track history (hours):
 
Tides and Currents Weather Stations Pressure Air Temp Water Temp Dewpoint Dewpoint Depression Visibility Wind Speed Wind Dir Waves Ship Positions

Paramount Hamilton

Last reported at 2017-Feb-19 20:28 UTC. Time now 2017-Feb-21 12:06 UTC.
Position N 28°40' W 094°28'.

Length 249 m; draft 10.9 m.

Type: Tanker. MMSI: 235076274.

Date/timePositionNaut miles runAvg speedWind from/ knotsBaromVisibWave heightAir tempDewpointWater temp
2017-Feb-19 20:28N 28°40' W 094°28'3 2.8
2017-Feb-19 19:33N 28°39' W 094°25'10 0.4
2017-Feb-18 21:32N 28°42' W 094°14'0 0.0
2017-Feb-18 20:23N 28°42' W 094°14'0 0.0
2017-Feb-18 19:29N 28°42' W 094°14'0 0.0
2017-Feb-18 18:32N 28°42' W 094°14'  
2017-Feb-11 20:33N 29°22' W 094°48'1010.2
2017-Feb-11 19:33N 29°31' W 094°53'9 9.4
2017-Feb-11 18:33N 29°39' W 094°58'7 6.9
2017-Feb-11 17:33N 29°44' W 095°04'2 0.9
2017-Feb-11 15:20N 29°45' W 095°06'0 0.0
2017-Feb-11 14:32N 29°45' W 095°06'0 0.0
2017-Feb-11 13:26N 29°45' W 095°06'0 0.0
2017-Feb-11 12:29N 29°45' W 095°06'0 0.0
2017-Feb-11 11:26N 29°45' W 095°06'0 0.0
2017-Feb-11 10:32N 29°45' W 095°06'0 0.0
2017-Feb-11 09:32N 29°45' W 095°06'0 0.0
2017-Feb-11 08:32N 29°45' W 095°06'0 0.0
2017-Feb-11 07:32N 29°45' W 095°06'0 0.0
2017-Feb-11 06:32N 29°45' W 095°06'0 0.0
2017-Feb-11 05:32N 29°45' W 095°06'0 0.0
2017-Feb-11 04:32N 29°45' W 095°06'0 0.0
2017-Feb-11 03:32N 29°45' W 095°06'0 0.0
2017-Feb-11 02:32N 29°45' W 095°06'0 0.0
2017-Feb-11 01:32N 29°45' W 095°06'0 0.0
2017-Feb-11 00:32N 29°45' W 095°06'0 0.0
2017-Feb-10 23:32N 29°45' W 095°06'0 0.0
2017-Feb-10 22:32N 29°45' W 095°06'0 0.0
2017-Feb-10 21:32N 29°45' W 095°06'0 0.0
2017-Feb-10 20:32N 29°45' W 095°06'0 0.0
2017-Feb-10 19:32N 29°45' W 095°06'0 0.0
2017-Feb-10 18:32N 29°45' W 095°06'0 0.0
2017-Feb-10 17:32N 29°45' W 095°06'0 0.0
2017-Feb-10 16:32N 29°45' W 095°06'0 0.0
2017-Feb-10 15:29N 29°45' W 095°06'0 0.0
2017-Feb-10 14:32N 29°45' W 095°06'0 0.0
2017-Feb-10 13:32N 29°45' W 095°06'0 0.0
2017-Feb-10 12:32N 29°45' W 095°06'0 0.0
2017-Feb-10 11:32N 29°45' W 095°06'0 0.0
2017-Feb-10 10:32N 29°45' W 095°06'0 0.0
2017-Feb-10 06:08N 29°45' W 095°06'0 0.0
2017-Feb-10 05:32N 29°45' W 095°06'0 0.0
2017-Feb-10 04:29N 29°45' W 095°06'0 0.0
2017-Feb-10 03:32N 29°45' W 095°06'0 0.0
2017-Feb-10 02:32N 29°45' W 095°06'0 0.0
2017-Feb-10 01:32N 29°45' W 095°06'0 0.0
2017-Feb-10 00:32N 29°45' W 095°06'0 0.0
2017-Feb-09 23:29N 29°45' W 095°06'0 0.0
2017-Feb-09 22:32N 29°45' W 095°06'0 0.0
2017-Feb-09 21:32N 29°45' W 095°06'0 0.0
2017-Feb-09 20:32N 29°45' W 095°06'  

Dump ship's entire track history